sensor_id;sensor_type;location;lat;lon;timestamp;P1;durP1;ratioP1;P2;durP2;ratioP2
42094;SDS011;27753;55.724;37.612;2024-03-23T00:52:37;44.55;;;27.25;;
42094;SDS011;27753;55.724;37.612;2024-03-23T00:55:03;51.58;;;27.20;;
42094;SDS011;27753;55.724;37.612;2024-03-23T00:57:28;42.00;;;26.50;;
42094;SDS011;27753;55.724;37.612;2024-03-23T00:59:54;39.05;;;24.83;;
42094;SDS011;27753;55.724;37.612;2024-03-23T01:02:20;41.92;;;25.70;;
42094;SDS011;27753;55.724;37.612;2024-03-23T01:04:46;37.03;;;24.92;;
42094;SDS011;27753;55.724;37.612;2024-03-23T01:07:11;43.28;;;26.73;;
42094;SDS011;27753;55.724;37.612;2024-03-23T01:09:37;42.80;;;27.10;;
42094;SDS011;27753;55.724;37.612;2024-03-23T01:12:04;39.67;;;25.30;;
42094;SDS011;27753;55.724;37.612;2024-03-23T01:14:30;43.63;;;28.65;;
42094;SDS011;27753;55.724;37.612;2024-03-23T01:16:56;36.33;;;25.67;;
42094;SDS011;27753;55.724;37.612;2024-03-23T01:19:21;41.25;;;26.50;;
42094;SDS011;27753;55.724;37.612;2024-03-23T01:21:47;35.65;;;26.40;;
42094;SDS011;27753;55.724;37.612;2024-03-23T01:24:14;33.35;;;20.55;;
42094;SDS011;27753;55.724;37.612;2024-03-23T01:26:40;44.08;;;27.58;;
42094;SDS011;27753;55.724;37.612;2024-03-23T01:29:06;44.75;;;28.27;;
42094;SDS011;27753;55.724;37.612;2024-03-23T01:31:32;43.35;;;25.58;;
42094;SDS011;27753;55.724;37.612;2024-03-23T01:33:58;47.60;;;27.00;;
42094;SDS011;27753;55.724;37.612;2024-03-23T01:36:23;45.42;;;27.08;;
42094;SDS011;27753;55.724;37.612;2024-03-23T01:38:49;46.67;;;29.50;;
42094;SDS011;27753;55.724;37.612;2024-03-23T01:41:17;44.42;;;28.38;;
42094;SDS011;27753;55.724;37.612;2024-03-23T01:43:43;50.17;;;28.75;;
42094;SDS011;27753;55.724;37.612;2024-03-23T01:46:08;44.47;;;24.88;;
42094;SDS011;27753;55.724;37.612;2024-03-23T01:48:34;33.72;;;20.38;;
42094;SDS011;27753;55.724;37.612;2024-03-23T01:51:00;38.08;;;26.35;;
42094;SDS011;27753;55.724;37.612;2024-03-23T01:53:26;41.20;;;27.45;;
42094;SDS011;27753;55.724;37.612;2024-03-23T01:55:52;46.38;;;30.08;;
42094;SDS011;27753;55.724;37.612;2024-03-23T01:58:18;46.05;;;27.40;;
42094;SDS011;27753;55.724;37.612;2024-03-23T02:00:43;48.55;;;29.67;;
42094;SDS011;27753;55.724;37.612;2024-03-23T02:03:22;49.90;;;28.90;;
42094;SDS011;27753;55.724;37.612;2024-03-23T02:05:52;43.20;;;23.92;;
42094;SDS011;27753;55.724;37.612;2024-03-23T02:08:19;43.58;;;27.05;;
42094;SDS011;27753;55.724;37.612;2024-03-23T02:10:47;28.25;;;16.58;;
42094;SDS011;27753;55.724;37.612;2024-03-23T02:15:40;41.10;;;25.08;;
42094;SDS011;27753;55.724;37.612;2024-03-23T02:18:09;43.88;;;25.25;;
42094;SDS011;27753;55.724;37.612;2024-03-23T02:20:36;42.25;;;25.48;;
42094;SDS011;27753;55.724;37.612;2024-03-23T02:23:02;39.25;;;26.48;;
42094;SDS011;27753;55.724;37.612;2024-03-23T02:25:31;47.28;;;27.80;;
42094;SDS011;27753;55.724;37.612;2024-03-23T02:27:57;44.93;;;26.93;;
42094;SDS011;27753;55.724;37.612;2024-03-23T02:30:24;40.92;;;27.60;;
42094;SDS011;27753;55.724;37.612;2024-03-23T02:32:50;42.83;;;25.70;;
42094;SDS011;27753;55.724;37.612;2024-03-23T02:35:19;34.92;;;23.98;;
42094;SDS011;27753;55.724;37.612;2024-03-23T02:37:45;38.95;;;22.90;;
42094;SDS011;27753;55.724;37.612;2024-03-23T02:40:13;45.72;;;25.83;;
42094;SDS011;27753;55.724;37.612;2024-03-23T02:42:40;40.50;;;23.95;;
42094;SDS011;27753;55.724;37.612;2024-03-23T02:45:06;43.45;;;26.15;;
42094;SDS011;27753;55.724;37.612;2024-03-23T02:47:32;46.00;;;25.45;;
42094;SDS011;27753;55.724;37.612;2024-03-23T02:49:57;42.30;;;25.30;;
42094;SDS011;27753;55.724;37.612;2024-03-23T02:52:23;41.03;;;26.70;;
42094;SDS011;27753;55.724;37.612;2024-03-23T02:54:49;39.25;;;24.73;;
42094;SDS011;27753;55.724;37.612;2024-03-23T02:57:15;44.63;;;28.67;;
42094;SDS011;27753;55.724;37.612;2024-03-23T02:59:41;45.60;;;27.95;;
42094;SDS011;27753;55.724;37.612;2024-03-23T03:02:06;33.53;;;20.27;;
42094;SDS011;27753;55.724;37.612;2024-03-23T03:04:32;41.83;;;22.48;;
42094;SDS011;27753;55.724;37.612;2024-03-23T03:06:58;41.47;;;27.20;;
42094;SDS011;27753;55.724;37.612;2024-03-23T03:09:25;44.15;;;24.90;;
42094;SDS011;27753;55.724;37.612;2024-03-23T03:11:50;44.33;;;29.17;;
42094;SDS011;27753;55.724;37.612;2024-03-23T03:14:16;45.25;;;26.17;;
42094;SDS011;27753;55.724;37.612;2024-03-23T03:16:42;41.20;;;25.42;;
42094;SDS011;27753;55.724;37.612;2024-03-23T03:19:08;42.05;;;27.67;;
42094;SDS011;27753;55.724;37.612;2024-03-23T03:21:35;44.05;;;27.42;;
42094;SDS011;27753;55.724;37.612;2024-03-23T03:24:01;50.13;;;24.83;;
42094;SDS011;27753;55.724;37.612;2024-03-23T03:26:27;40.03;;;21.67;;
42094;SDS011;27753;55.724;37.612;2024-03-23T03:28:53;42.05;;;26.90;;
42094;SDS011;27753;55.724;37.612;2024-03-23T03:31:18;43.25;;;26.38;;
42094;SDS011;27753;55.724;37.612;2024-03-23T03:33:44;39.72;;;27.05;;
42094;SDS011;27753;55.724;37.612;2024-03-23T03:36:10;39.28;;;24.25;;
42094;SDS011;27753;55.724;37.612;2024-03-23T03:38:36;41.97;;;26.70;;
42094;SDS011;27753;55.724;37.612;2024-03-23T03:41:03;38.53;;;23.40;;
42094;SDS011;27753;55.724;37.612;2024-03-23T03:43:31;40.55;;;23.70;;
42094;SDS011;27753;55.724;37.612;2024-03-23T03:45:57;43.42;;;27.23;;
42094;SDS011;27753;55.724;37.612;2024-03-23T03:48:24;43.42;;;27.02;;
42094;SDS011;27753;55.724;37.612;2024-03-23T03:50:50;40.03;;;25.50;;
42094;SDS011;27753;55.724;37.612;2024-03-23T03:53:16;34.65;;;19.70;;
42094;SDS011;27753;55.724;37.612;2024-03-23T03:55:42;35.97;;;20.10;;
42094;SDS011;27753;55.724;37.612;2024-03-23T03:58:08;37.10;;;25.75;;
42094;SDS011;27753;55.724;37.612;2024-03-23T04:00:33;39.42;;;23.88;;
42094;SDS011;27753;55.724;37.612;2024-03-23T04:03:00;35.07;;;23.57;;
42094;SDS011;27753;55.724;37.612;2024-03-23T04:05:26;43.45;;;25.83;;
42094;SDS011;27753;55.724;37.612;2024-03-23T04:07:52;40.60;;;23.40;;
42094;SDS011;27753;55.724;37.612;2024-03-23T04:10:19;38.42;;;26.83;;
42094;SDS011;27753;55.724;37.612;2024-03-23T04:12:45;48.10;;;27.63;;
42094;SDS011;27753;55.724;37.612;2024-03-23T04:15:12;47.53;;;26.85;;
42094;SDS011;27753;55.724;37.612;2024-03-23T04:17:38;36.30;;;21.98;;
42094;SDS011;27753;55.724;37.612;2024-03-23T04:20:04;34.10;;;21.48;;
42094;SDS011;27753;55.724;37.612;2024-03-23T04:22:36;35.03;;;24.17;;
42094;SDS011;27753;55.724;37.612;2024-03-23T04:25:02;30.85;;;20.55;;
42094;SDS011;27753;55.724;37.612;2024-03-23T04:27:34;38.72;;;22.23;;
42094;SDS011;27753;55.724;37.612;2024-03-23T04:30:00;33.28;;;23.63;;
42094;SDS011;27753;55.724;37.612;2024-03-23T04:32:27;33.03;;;21.17;;
42094;SDS011;27753;55.724;37.612;2024-03-23T04:34:53;38.50;;;23.52;;
42094;SDS011;27753;55.724;37.612;2024-03-23T04:37:19;35.35;;;21.88;;
42094;SDS011;27753;55.724;37.612;2024-03-23T04:39:48;41.58;;;24.65;;
42094;SDS011;27753;55.724;37.612;2024-03-23T04:42:17;37.95;;;21.13;;
42094;SDS011;27753;55.724;37.612;2024-03-23T04:44:42;41.45;;;24.73;;
42094;SDS011;27753;55.724;37.612;2024-03-23T04:47:09;30.17;;;17.73;;
42094;SDS011;27753;55.724;37.612;2024-03-23T04:49:35;34.00;;;24.45;;
42094;SDS011;27753;55.724;37.612;2024-03-23T04:52:02;35.97;;;23.85;;
42094;SDS011;27753;55.724;37.612;2024-03-23T04:54:29;35.03;;;22.38;;
42094;SDS011;27753;55.724;37.612;2024-03-23T04:56:55;32.33;;;20.98;;
42094;SDS011;27753;55.724;37.612;2024-03-23T04:59:21;34.70;;;22.88;;
42094;SDS011;27753;55.724;37.612;2024-03-23T05:01:50;38.40;;;21.20;;
42094;SDS011;27753;55.724;37.612;2024-03-23T05:04:16;34.03;;;19.75;;
42094;SDS011;27753;55.724;37.612;2024-03-23T05:06:41;37.60;;;24.35;;
42094;SDS011;27753;55.724;37.612;2024-03-23T05:09:07;36.28;;;23.35;;
42094;SDS011;27753;55.724;37.612;2024-03-23T05:11:37;37.83;;;22.60;;
42094;SDS011;27753;55.724;37.612;2024-03-23T05:14:03;32.92;;;20.95;;
42094;SDS011;27753;55.724;37.612;2024-03-23T05:16:29;36.45;;;23.23;;
42094;SDS011;27753;55.724;37.612;2024-03-23T05:18:55;33.85;;;23.38;;
42094;SDS011;27753;55.724;37.612;2024-03-23T05:21:21;34.38;;;24.10;;
42094;SDS011;27753;55.724;37.612;2024-03-23T05:23:46;35.17;;;22.08;;
42094;SDS011;27753;55.724;37.612;2024-03-23T05:26:15;34.42;;;21.33;;
42094;SDS011;27753;55.724;37.612;2024-03-23T05:28:41;31.20;;;19.40;;
42094;SDS011;27753;55.724;37.612;2024-03-23T05:31:07;27.88;;;19.20;;
42094;SDS011;27753;55.724;37.612;2024-03-23T05:33:34;35.63;;;23.60;;
42094;SDS011;27753;55.724;37.612;2024-03-23T05:36:06;34.45;;;19.88;;
42094;SDS011;27753;55.724;37.612;2024-03-23T05:38:36;33.28;;;21.35;;
42094;SDS011;27753;55.724;37.612;2024-03-23T05:41:02;36.35;;;23.83;;
42094;SDS011;27753;55.724;37.612;2024-03-23T05:43:28;29.73;;;19.48;;
42094;SDS011;27753;55.724;37.612;2024-03-23T05:45:54;31.63;;;20.98;;
42094;SDS011;27753;55.724;37.612;2024-03-23T05:48:20;30.48;;;19.58;;
42094;SDS011;27753;55.724;37.612;2024-03-23T05:50:46;34.70;;;22.98;;
42094;SDS011;27753;55.724;37.612;2024-03-23T05:53:12;29.40;;;18.38;;
42094;SDS011;27753;55.724;37.612;2024-03-23T05:55:38;25.23;;;18.10;;
42094;SDS011;27753;55.724;37.612;2024-03-23T05:58:04;34.80;;;23.90;;
42094;SDS011;27753;55.724;37.612;2024-03-23T06:00:32;35.30;;;19.85;;
42094;SDS011;27753;55.724;37.612;2024-03-23T06:02:58;31.30;;;21.90;;
42094;SDS011;27753;55.724;37.612;2024-03-23T06:05:26;32.83;;;23.27;;
42094;SDS011;27753;55.724;37.612;2024-03-23T06:07:52;35.22;;;21.65;;
42094;SDS011;27753;55.724;37.612;2024-03-23T06:10:18;29.27;;;20.27;;
42094;SDS011;27753;55.724;37.612;2024-03-23T06:12:48;33.00;;;21.42;;
42094;SDS011;27753;55.724;37.612;2024-03-23T06:15:15;35.45;;;23.65;;
42094;SDS011;27753;55.724;37.612;2024-03-23T06:17:41;26.10;;;19.33;;
42094;SDS011;27753;55.724;37.612;2024-03-23T06:20:07;32.17;;;22.27;;
42094;SDS011;27753;55.724;37.612;2024-03-23T06:22:33;28.08;;;20.95;;
42094;SDS011;27753;55.724;37.612;2024-03-23T06:24:59;26.40;;;19.23;;
42094;SDS011;27753;55.724;37.612;2024-03-23T06:27:25;30.05;;;20.40;;
42094;SDS011;27753;55.724;37.612;2024-03-23T06:29:51;24.35;;;17.85;;
42094;SDS011;27753;55.724;37.612;2024-03-23T06:32:20;22.77;;;15.95;;
42094;SDS011;27753;55.724;37.612;2024-03-23T06:34:46;30.08;;;18.33;;
42094;SDS011;27753;55.724;37.612;2024-03-23T06:37:12;27.35;;;19.33;;
42094;SDS011;27753;55.724;37.612;2024-03-23T06:39:38;28.02;;;20.85;;
42094;SDS011;27753;55.724;37.612;2024-03-23T06:42:04;27.95;;;17.67;;
42094;SDS011;27753;55.724;37.612;2024-03-23T06:44:30;29.73;;;19.77;;
42094;SDS011;27753;55.724;37.612;2024-03-23T06:46:56;26.17;;;18.83;;
42094;SDS011;27753;55.724;37.612;2024-03-23T06:49:22;26.88;;;18.58;;
42094;SDS011;27753;55.724;37.612;2024-03-23T06:51:49;28.42;;;21.33;;
42094;SDS011;27753;55.724;37.612;2024-03-23T06:54:16;27.50;;;17.95;;
42094;SDS011;27753;55.724;37.612;2024-03-23T06:56:46;26.90;;;21.02;;
42094;SDS011;27753;55.724;37.612;2024-03-23T06:59:12;25.50;;;16.35;;
42094;SDS011;27753;55.724;37.612;2024-03-23T07:01:37;24.92;;;16.25;;
42094;SDS011;27753;55.724;37.612;2024-03-23T07:04:03;21.17;;;15.13;;
42094;SDS011;27753;55.724;37.612;2024-03-23T07:06:30;27.40;;;19.75;;
42094;SDS011;27753;55.724;37.612;2024-03-23T07:08:56;27.35;;;18.52;;
42094;SDS011;27753;55.724;37.612;2024-03-23T07:11:22;23.02;;;17.45;;
42094;SDS011;27753;55.724;37.612;2024-03-23T07:13:51;25.20;;;15.25;;
42094;SDS011;27753;55.724;37.612;2024-03-23T07:16:20;25.42;;;17.73;;
42094;SDS011;27753;55.724;37.612;2024-03-23T07:18:49;21.00;;;14.95;;
42094;SDS011;27753;55.724;37.612;2024-03-23T07:21:15;22.48;;;15.55;;
42094;SDS011;27753;55.724;37.612;2024-03-23T07:23:44;21.30;;;12.95;;
42094;SDS011;27753;55.724;37.612;2024-03-23T07:26:10;20.92;;;15.38;;
42094;SDS011;27753;55.724;37.612;2024-03-23T07:28:36;22.23;;;14.43;;
42094;SDS011;27753;55.724;37.612;2024-03-23T07:31:07;23.63;;;17.30;;
42094;SDS011;27753;55.724;37.612;2024-03-23T07:33:36;27.35;;;17.55;;
42094;SDS011;27753;55.724;37.612;2024-03-23T07:36:06;23.95;;;17.73;;
42094;SDS011;27753;55.724;37.612;2024-03-23T07:38:32;24.13;;;18.88;;
42094;SDS011;27753;55.724;37.612;2024-03-23T07:41:05;31.00;;;19.85;;
42094;SDS011;27753;55.724;37.612;2024-03-23T07:43:31;28.60;;;17.95;;
42094;SDS011;27753;55.724;37.612;2024-03-23T07:45:58;27.35;;;18.35;;
42094;SDS011;27753;55.724;37.612;2024-03-23T07:48:24;26.02;;;16.67;;
42094;SDS011;27753;55.724;37.612;2024-03-23T07:50:57;20.55;;;16.60;;
42094;SDS011;27753;55.724;37.612;2024-03-23T07:53:27;21.48;;;14.68;;
42094;SDS011;27753;55.724;37.612;2024-03-23T07:55:57;21.25;;;16.90;;
42094;SDS011;27753;55.724;37.612;2024-03-23T07:58:25;24.20;;;15.75;;
42094;SDS011;27753;55.724;37.612;2024-03-23T08:00:52;24.37;;;18.00;;
42094;SDS011;27753;55.724;37.612;2024-03-23T08:03:18;25.65;;;17.60;;
42094;SDS011;27753;55.724;37.612;2024-03-23T08:05:44;25.80;;;17.85;;
42094;SDS011;27753;55.724;37.612;2024-03-23T08:08:10;25.02;;;16.92;;
42094;SDS011;27753;55.724;37.612;2024-03-23T08:10:37;23.58;;;16.63;;
42094;SDS011;27753;55.724;37.612;2024-03-23T08:13:12;20.50;;;11.98;;
42094;SDS011;27753;55.724;37.612;2024-03-23T08:15:38;26.48;;;15.88;;
42094;SDS011;27753;55.724;37.612;2024-03-23T08:18:04;21.90;;;15.00;;
42094;SDS011;27753;55.724;37.612;2024-03-23T08:20:30;26.63;;;15.73;;
42094;SDS011;27753;55.724;37.612;2024-03-23T08:22:55;22.17;;;15.40;;
42094;SDS011;27753;55.724;37.612;2024-03-23T08:25:22;25.83;;;16.05;;
42094;SDS011;27753;55.724;37.612;2024-03-23T08:27:47;21.35;;;13.02;;
42094;SDS011;27753;55.724;37.612;2024-03-23T08:30:13;24.73;;;17.52;;
42094;SDS011;27753;55.724;37.612;2024-03-23T08:32:39;19.40;;;15.75;;
42094;SDS011;27753;55.724;37.612;2024-03-23T08:35:06;18.67;;;10.80;;
42094;SDS011;27753;55.724;37.612;2024-03-23T08:37:32;19.42;;;15.38;;
42094;SDS011;27753;55.724;37.612;2024-03-23T08:39:58;24.92;;;15.38;;
42094;SDS011;27753;55.724;37.612;2024-03-23T08:42:24;23.67;;;15.75;;
42094;SDS011;27753;55.724;37.612;2024-03-23T08:44:50;24.25;;;16.38;;
42094;SDS011;27753;55.724;37.612;2024-03-23T08:47:16;19.50;;;12.48;;
42094;SDS011;27753;55.724;37.612;2024-03-23T08:49:44;24.40;;;16.63;;
42094;SDS011;27753;55.724;37.612;2024-03-23T08:52:10;17.60;;;13.25;;
42094;SDS011;27753;55.724;37.612;2024-03-23T08:54:36;18.52;;;13.30;;
42094;SDS011;27753;55.724;37.612;2024-03-23T08:57:01;16.40;;;13.68;;
42094;SDS011;27753;55.724;37.612;2024-03-23T08:59:27;24.38;;;16.23;;
42094;SDS011;27753;55.724;37.612;2024-03-23T09:01:53;20.38;;;12.80;;
42094;SDS011;27753;55.724;37.612;2024-03-23T09:04:19;18.58;;;13.18;;
42094;SDS011;27753;55.724;37.612;2024-03-23T09:06:46;15.88;;;12.23;;
42094;SDS011;27753;55.724;37.612;2024-03-23T09:09:12;22.98;;;14.60;;
42094;SDS011;27753;55.724;37.612;2024-03-23T09:11:45;20.27;;;14.52;;
42094;SDS011;27753;55.724;37.612;2024-03-23T09:14:11;19.40;;;14.13;;
42094;SDS011;27753;55.724;37.612;2024-03-23T09:16:37;21.63;;;15.43;;
42094;SDS011;27753;55.724;37.612;2024-03-23T09:19:03;19.25;;;14.25;;
42094;SDS011;27753;55.724;37.612;2024-03-23T09:21:28;26.77;;;15.70;;
42094;SDS011;27753;55.724;37.612;2024-03-23T09:23:54;16.55;;;12.73;;
42094;SDS011;27753;55.724;37.612;2024-03-23T09:26:20;18.80;;;14.23;;
42094;SDS011;27753;55.724;37.612;2024-03-23T09:28:48;20.77;;;15.93;;
42094;SDS011;27753;55.724;37.612;2024-03-23T09:31:14;23.58;;;13.95;;
42094;SDS011;27753;55.724;37.612;2024-03-23T09:33:43;19.70;;;14.02;;
42094;SDS011;27753;55.724;37.612;2024-03-23T09:36:09;19.08;;;14.23;;
42094;SDS011;27753;55.724;37.612;2024-03-23T09:38:35;20.05;;;14.13;;
42094;SDS011;27753;55.724;37.612;2024-03-23T09:41:06;18.48;;;13.85;;
42094;SDS011;27753;55.724;37.612;2024-03-23T09:43:33;18.15;;;12.60;;
42094;SDS011;27753;55.724;37.612;2024-03-23T09:46:00;20.98;;;15.45;;
42094;SDS011;27753;55.724;37.612;2024-03-23T09:50:53;20.15;;;12.52;;
42094;SDS011;27753;55.724;37.612;2024-03-23T09:53:19;17.25;;;13.00;;
42094;SDS011;27753;55.724;37.612;2024-03-23T09:55:45;15.90;;;12.88;;
42094;SDS011;27753;55.724;37.612;2024-03-23T09:58:15;19.38;;;15.18;;
42094;SDS011;27753;55.724;37.612;2024-03-23T10:00:41;18.45;;;11.05;;
42094;SDS011;27753;55.724;37.612;2024-03-23T10:03:07;17.15;;;12.85;;
42094;SDS011;27753;55.724;37.612;2024-03-23T10:05:36;18.88;;;13.90;;
42094;SDS011;27753;55.724;37.612;2024-03-23T10:10:40;18.83;;;13.55;;
42094;SDS011;27753;55.724;37.612;2024-03-23T10:13:09;13.88;;;10.35;;
42094;SDS011;27753;55.724;37.612;2024-03-23T10:15:35;19.70;;;12.25;;
42094;SDS011;27753;55.724;37.612;2024-03-23T10:18:23;16.80;;;12.27;;
42094;SDS011;27753;55.724;37.612;2024-03-23T10:23:30;16.02;;;11.98;;
42094;SDS011;27753;55.724;37.612;2024-03-23T10:31:30;20.38;;;12.98;;
42094;SDS011;27753;55.724;37.612;2024-03-23T10:33:56;21.67;;;14.75;;
42094;SDS011;27753;55.724;37.612;2024-03-23T10:36:27;21.20;;;15.07;;
42094;SDS011;27753;55.724;37.612;2024-03-23T10:38:54;27.13;;;19.13;;
42094;SDS011;27753;55.724;37.612;2024-03-23T10:41:28;20.42;;;16.23;;
42094;SDS011;27753;55.724;37.612;2024-03-23T10:43:56;21.42;;;16.02;;
42094;SDS011;27753;55.724;37.612;2024-03-23T10:46:31;19.55;;;14.43;;
42094;SDS011;27753;55.724;37.612;2024-03-23T10:49:08;21.33;;;15.07;;
42094;SDS011;27753;55.724;37.612;2024-03-23T10:51:37;15.18;;;11.60;;
42094;SDS011;27753;55.724;37.612;2024-03-23T10:54:06;21.17;;;14.43;;
42094;SDS011;27753;55.724;37.612;2024-03-23T10:56:38;19.10;;;14.45;;
42094;SDS011;27753;55.724;37.612;2024-03-23T11:01:32;17.77;;;14.20;;
42094;SDS011;27753;55.724;37.612;2024-03-23T11:03:58;17.48;;;13.38;;
42094;SDS011;27753;55.724;37.612;2024-03-23T11:06:42;19.63;;;14.93;;
42094;SDS011;27753;55.724;37.612;2024-03-23T11:12:17;17.30;;;12.18;;
42094;SDS011;27753;55.724;37.612;2024-03-23T11:17:33;19.35;;;14.23;;
42094;SDS011;27753;55.724;37.612;2024-03-23T11:20:02;22.13;;;14.77;;
42094;SDS011;27753;55.724;37.612;2024-03-23T11:22:40;19.60;;;14.38;;
42094;SDS011;27753;55.724;37.612;2024-03-23T11:25:16;20.38;;;13.52;;
42094;SDS011;27753;55.724;37.612;2024-03-23T11:27:56;19.77;;;14.60;;
42094;SDS011;27753;55.724;37.612;2024-03-23T11:30:28;16.20;;;12.63;;
42094;SDS011;27753;55.724;37.612;2024-03-23T11:33:02;20.83;;;15.20;;
42094;SDS011;27753;55.724;37.612;2024-03-23T11:35:43;22.45;;;14.30;;
42094;SDS011;27753;55.724;37.612;2024-03-23T11:38:11;17.27;;;14.50;;
42094;SDS011;27753;55.724;37.612;2024-03-23T11:40:46;18.58;;;13.77;;
42094;SDS011;27753;55.724;37.612;2024-03-23T11:43:19;19.65;;;13.57;;
42094;SDS011;27753;55.724;37.612;2024-03-23T11:45:50;19.33;;;14.38;;
42094;SDS011;27753;55.724;37.612;2024-03-23T11:48:18;26.42;;;17.02;;
42094;SDS011;27753;55.724;37.612;2024-03-23T11:50:46;19.85;;;14.57;;
42094;SDS011;27753;55.724;37.612;2024-03-23T11:53:17;21.77;;;16.73;;
42094;SDS011;27753;55.724;37.612;2024-03-23T11:58:13;19.42;;;15.65;;
42094;SDS011;27753;55.724;37.612;2024-03-23T12:00:40;22.33;;;16.67;;
42094;SDS011;27753;55.724;37.612;2024-03-23T12:03:06;21.13;;;15.68;;
42094;SDS011;27753;55.724;37.612;2024-03-23T12:05:32;26.58;;;17.60;;
42094;SDS011;27753;55.724;37.612;2024-03-23T12:08:18;24.57;;;17.27;;
42094;SDS011;27753;55.724;37.612;2024-03-23T12:13:38;26.13;;;18.27;;
42094;SDS011;27753;55.724;37.612;2024-03-23T12:18:37;24.52;;;18.92;;
42094;SDS011;27753;55.724;37.612;2024-03-23T12:21:07;22.10;;;16.75;;
42094;SDS011;27753;55.724;37.612;2024-03-23T12:23:34;26.23;;;17.10;;
42094;SDS011;27753;55.724;37.612;2024-03-23T12:26:00;26.33;;;17.73;;
42094;SDS011;27753;55.724;37.612;2024-03-23T12:28:26;26.77;;;18.10;;
42094;SDS011;27753;55.724;37.612;2024-03-23T12:30:55;26.05;;;18.20;;
42094;SDS011;27753;55.724;37.612;2024-03-23T12:33:21;29.33;;;20.05;;
42094;SDS011;27753;55.724;37.612;2024-03-23T12:35:47;30.63;;;20.20;;
42094;SDS011;27753;55.724;37.612;2024-03-23T12:38:13;27.60;;;21.05;;
42094;SDS011;27753;55.724;37.612;2024-03-23T12:40:39;23.30;;;16.35;;
42094;SDS011;27753;55.724;37.612;2024-03-23T12:43:23;30.98;;;19.38;;
42094;SDS011;27753;55.724;37.612;2024-03-23T12:45:49;32.95;;;19.15;;
42094;SDS011;27753;55.724;37.612;2024-03-23T12:48:16;29.20;;;17.85;;
42094;SDS011;27753;55.724;37.612;2024-03-23T12:50:42;28.40;;;18.95;;
42094;SDS011;27753;55.724;37.612;2024-03-23T12:53:07;29.40;;;20.48;;
42094;SDS011;27753;55.724;37.612;2024-03-23T12:55:36;35.55;;;21.00;;
42094;SDS011;27753;55.724;37.612;2024-03-23T12:58:05;44.40;;;25.85;;
42094;SDS011;27753;55.724;37.612;2024-03-23T13:00:32;33.30;;;22.33;;
42094;SDS011;27753;55.724;37.612;2024-03-23T13:03:01;28.85;;;19.73;;
42094;SDS011;27753;55.724;37.612;2024-03-23T13:05:26;25.35;;;19.70;;
42094;SDS011;27753;55.724;37.612;2024-03-23T13:07:52;27.92;;;18.90;;
42094;SDS011;27753;55.724;37.612;2024-03-23T13:10:18;32.78;;;22.40;;
42094;SDS011;27753;55.724;37.612;2024-03-23T13:12:44;28.02;;;18.98;;
42094;SDS011;27753;55.724;37.612;2024-03-23T13:15:10;27.20;;;19.50;;
42094;SDS011;27753;55.724;37.612;2024-03-23T13:17:35;26.83;;;19.73;;
42094;SDS011;27753;55.724;37.612;2024-03-23T13:20:01;24.85;;;15.55;;
42094;SDS011;27753;55.724;37.612;2024-03-23T13:22:28;24.77;;;17.70;;
42094;SDS011;27753;55.724;37.612;2024-03-23T13:24:57;29.35;;;18.05;;
42094;SDS011;27753;55.724;37.612;2024-03-23T13:27:24;27.13;;;16.67;;
42094;SDS011;27753;55.724;37.612;2024-03-23T13:29:50;23.90;;;17.20;;
42094;SDS011;27753;55.724;37.612;2024-03-23T13:32:16;23.20;;;17.80;;
42094;SDS011;27753;55.724;37.612;2024-03-23T13:34:42;24.52;;;17.45;;
42094;SDS011;27753;55.724;37.612;2024-03-23T13:37:08;24.42;;;17.27;;
42094;SDS011;27753;55.724;37.612;2024-03-23T13:39:34;20.07;;;15.13;;
42094;SDS011;27753;55.724;37.612;2024-03-23T13:42:00;22.38;;;15.43;;
42094;SDS011;27753;55.724;37.612;2024-03-23T13:44:26;24.60;;;15.43;;
42094;SDS011;27753;55.724;37.612;2024-03-23T13:46:52;21.40;;;14.55;;
42094;SDS011;27753;55.724;37.612;2024-03-23T13:49:27;21.52;;;15.73;;
42094;SDS011;27753;55.724;37.612;2024-03-23T13:51:54;24.20;;;15.30;;
42094;SDS011;27753;55.724;37.612;2024-03-23T13:54:26;23.67;;;15.68;;
42094;SDS011;27753;55.724;37.612;2024-03-23T13:56:56;20.98;;;15.80;;
42094;SDS011;27753;55.724;37.612;2024-03-23T13:59:23;23.20;;;15.52;;
42094;SDS011;27753;55.724;37.612;2024-03-23T14:01:49;22.27;;;14.43;;
42094;SDS011;27753;55.724;37.612;2024-03-23T14:04:18;20.48;;;12.93;;
42094;SDS011;27753;55.724;37.612;2024-03-23T14:06:48;19.88;;;13.48;;
42094;SDS011;27753;55.724;37.612;2024-03-23T14:09:14;21.38;;;13.50;;
42094;SDS011;27753;55.724;37.612;2024-03-23T14:11:45;22.45;;;15.05;;
42094;SDS011;27753;55.724;37.612;2024-03-23T14:14:11;17.00;;;13.18;;
42094;SDS011;27753;55.724;37.612;2024-03-23T14:16:37;21.30;;;15.27;;
42094;SDS011;27753;55.724;37.612;2024-03-23T14:19:03;21.05;;;13.85;;
42094;SDS011;27753;55.724;37.612;2024-03-23T14:21:31;27.23;;;19.35;;
42094;SDS011;27753;55.724;37.612;2024-03-23T14:23:57;16.17;;;11.45;;
42094;SDS011;27753;55.724;37.612;2024-03-23T14:26:23;18.73;;;14.40;;
42094;SDS011;27753;55.724;37.612;2024-03-23T14:28:49;16.55;;;11.57;;
42094;SDS011;27753;55.724;37.612;2024-03-23T14:31:15;17.77;;;11.70;;
42094;SDS011;27753;55.724;37.612;2024-03-23T14:33:41;17.58;;;12.48;;
42094;SDS011;27753;55.724;37.612;2024-03-23T14:36:12;15.13;;;12.35;;
42094;SDS011;27753;55.724;37.612;2024-03-23T14:38:41;16.52;;;13.55;;
42094;SDS011;27753;55.724;37.612;2024-03-23T14:41:07;14.27;;;11.48;;
42094;SDS011;27753;55.724;37.612;2024-03-23T14:43:33;20.83;;;14.95;;
42094;SDS011;27753;55.724;37.612;2024-03-23T14:46:06;19.60;;;13.05;;
42094;SDS011;27753;55.724;37.612;2024-03-23T14:48:35;15.63;;;11.90;;
42094;SDS011;27753;55.724;37.612;2024-03-23T14:51:01;19.02;;;10.63;;
42094;SDS011;27753;55.724;37.612;2024-03-23T14:53:40;19.33;;;11.60;;
42094;SDS011;27753;55.724;37.612;2024-03-23T14:56:10;18.48;;;13.63;;
42094;SDS011;27753;55.724;37.612;2024-03-23T14:58:38;15.73;;;11.30;;
42094;SDS011;27753;55.724;37.612;2024-03-23T15:01:05;19.10;;;12.10;;
42094;SDS011;27753;55.724;37.612;2024-03-23T15:03:34;15.07;;;12.10;;
42094;SDS011;27753;55.724;37.612;2024-03-23T15:06:08;20.83;;;13.82;;
42094;SDS011;27753;55.724;37.612;2024-03-23T15:08:38;18.17;;;11.65;;
42094;SDS011;27753;55.724;37.612;2024-03-23T15:11:10;14.77;;;10.85;;
42094;SDS011;27753;55.724;37.612;2024-03-23T15:13:36;14.27;;;10.43;;
42094;SDS011;27753;55.724;37.612;2024-03-23T15:16:03;15.65;;;12.10;;
42094;SDS011;27753;55.724;37.612;2024-03-23T15:18:29;14.73;;;11.63;;
42094;SDS011;27753;55.724;37.612;2024-03-23T15:20:56;14.25;;;11.63;;
42094;SDS011;27753;55.724;37.612;2024-03-23T15:23:28;15.30;;;11.27;;
42094;SDS011;27753;55.724;37.612;2024-03-23T15:26:01;17.25;;;11.90;;
42094;SDS011;27753;55.724;37.612;2024-03-23T15:28:27;13.10;;;11.43;;
42094;SDS011;27753;55.724;37.612;2024-03-23T15:31:04;15.27;;;10.93;;
42094;SDS011;27753;55.724;37.612;2024-03-23T15:33:34;18.38;;;11.50;;